Time;durP1;ratioP1;P1;durP2;ratioP2;P2;SDS_P1;SDS_P2;PMS_P1;PMS_P2;Temp;Humidity;BMP_temperature;BMP_pressure;BME280_temperature;BME280_humidity;BME280_pressure;Samples;Min_cycle;Max_cycle;Signal;HPM_P1;HPM_P2
2022/03/17 00:01:11;;;;;;;75.07;48.13;;;;;;;;;;5081970;28;20481;-71
2022/03/17 00:03:36;;;;;;;71.10;44.55;;;;;;;;;;5081701;28;20043;-70
2022/03/17 00:06:02;;;;;;;72.70;47.33;;;;;;;;;;5081061;28;20024;-71
2022/03/17 00:08:27;;;;;;;90.45;52.28;;;;;;;;;;5076687;28;20413;-70
2022/03/17 00:10:52;;;;;;;89.80;53.42;;;;;;;;;;5078096;28;20028;-70
2022/03/17 00:13:19;;;;;;;128.20;73.70;;;;;;;;;;5073405;28;20047;-70
2022/03/17 00:15:44;;;;;;;121.75;71.30;;;;;;;;;;5072536;28;20031;-69
2022/03/17 00:18:10;;;;;;;132.48;74.38;;;;;;;;;;5074591;28;20024;-68
2022/03/17 00:20:35;;;;;;;120.82;68.25;;;;;;;;;;5080061;28;20031;-68
2022/03/17 00:23:00;;;;;;;108.05;64.57;;;;;;;;;;5087607;28;20423;-69
2022/03/17 00:25:29;;;;;;;84.80;52.10;;;;;;;;;;5084220;28;20346;-69
2022/03/17 00:27:54;;;;;;;84.05;51.22;;;;;;;;;;5076484;28;20034;-69
2022/03/17 00:30:20;;;;;;;90.00;53.70;;;;;;;;;;5075640;28;20039;-70
2022/03/17 00:32:45;;;;;;;79.38;50.67;;;;;;;;;;5076387;28;20052;-69
2022/03/17 00:37:55;;;;;;;78.55;48.30;;;;;;;;;;5084277;28;20042;-68
2022/03/17 00:40:22;;;;;;;76.72;45.00;;;;;;;;;;5078078;28;20032;-69
2022/03/17 00:42:47;;;;;;;78.15;48.95;;;;;;;;;;5078903;28;20048;-68
2022/03/17 00:45:13;;;;;;;80.53;50.90;;;;;;;;;;5073666;28;20056;-70
2022/03/17 00:47:38;;;;;;;81.97;49.95;;;;;;;;;;5086180;28;20031;-69
2022/03/17 00:50:04;;;;;;;78.50;46.30;;;;;;;;;;5083874;28;20143;-69
2022/03/17 00:52:29;;;;;;;86.18;54.58;;;;;;;;;;5075970;28;20050;-70
2022/03/17 00:54:55;;;;;;;95.95;55.45;;;;;;;;;;5085303;28;20077;-68
2022/03/17 00:57:20;;;;;;;76.38;46.72;;;;;;;;;;5084930;28;20055;-69
2022/03/17 00:59:45;;;;;;;78.75;49.05;;;;;;;;;;5072147;28;20027;-69
2022/03/17 01:02:11;;;;;;;87.47;53.83;;;;;;;;;;5088616;28;20028;-69
2022/03/17 01:04:36;;;;;;;86.93;51.35;;;;;;;;;;5090457;28;20084;-70
2022/03/17 01:07:01;;;;;;;87.03;51.30;;;;;;;;;;5084014;28;20027;-69
2022/03/17 01:09:29;;;;;;;76.10;46.53;;;;;;;;;;5085504;28;20023;-69
2022/03/17 01:11:55;;;;;;;65.00;41.85;;;;;;;;;;5087654;28;20417;-70
2022/03/17 01:14:21;;;;;;;60.28;39.20;;;;;;;;;;5073590;28;20048;-69
2022/03/17 01:16:46;;;;;;;65.10;42.17;;;;;;;;;;5080620;28;20024;-69
2022/03/17 01:19:11;;;;;;;61.50;40.33;;;;;;;;;;5076159;28;20106;-69
2022/03/17 01:21:37;;;;;;;66.25;41.67;;;;;;;;;;5085438;28;20031;-69
2022/03/17 01:24:02;;;;;;;65.35;43.72;;;;;;;;;;5084339;28;20040;-70
2022/03/17 01:26:28;;;;;;;64.15;41.15;;;;;;;;;;5072365;28;20031;-68
2022/03/17 01:28:53;;;;;;;65.60;42.58;;;;;;;;;;5074094;28;20355;-69
2022/03/17 01:31:21;;;;;;;61.33;38.72;;;;;;;;;;5077161;28;20027;-69
2022/03/17 01:33:47;;;;;;;65.65;43.17;;;;;;;;;;5078713;28;20023;-70
2022/03/17 01:36:12;;;;;;;56.28;38.97;;;;;;;;;;5084917;28;20020;-68
2022/03/17 01:38:37;;;;;;;51.33;36.70;;;;;;;;;;5083659;28;20055;-70
2022/03/17 01:41:03;;;;;;;52.55;37.00;;;;;;;;;;5080316;28;20027;-69
2022/03/17 01:43:28;;;;;;;55.05;37.80;;;;;;;;;;5076584;28;20108;-68
2022/03/17 01:45:54;;;;;;;54.95;37.13;;;;;;;;;;5078956;28;20143;-69
2022/03/17 01:48:22;;;;;;;58.63;39.75;;;;;;;;;;5076632;28;20040;-69
2022/03/17 01:50:50;;;;;;;53.60;37.03;;;;;;;;;;5085074;28;20427;-69
2022/03/17 01:53:15;;;;;;;53.65;37.42;;;;;;;;;;5076466;28;20032;-69
2022/03/17 01:55:41;;;;;;;47.83;34.72;;;;;;;;;;5075312;28;20024;-68
2022/03/17 01:58:07;;;;;;;46.42;33.08;;;;;;;;;;5085216;28;20035;-69
2022/03/17 02:00:32;;;;;;;42.92;31.00;;;;;;;;;;5083864;28;20434;-69
2022/03/17 02:02:57;;;;;;;51.20;35.55;;;;;;;;;;5084232;28;20358;-70
2022/03/17 02:05:23;;;;;;;43.65;31.10;;;;;;;;;;5083399;28;20131;-68
2022/03/17 02:07:50;;;;;;;37.28;27.35;;;;;;;;;;5085003;28;20083;-66
2022/03/17 02:10:15;;;;;;;37.17;27.08;;;;;;;;;;5084020;28;20039;-70
2022/03/17 02:15:26;;;;;;;34.88;26.38;;;;;;;;;;5079140;28;20112;-69
2022/03/17 02:17:52;;;;;;;36.42;26.48;;;;;;;;;;5072561;28;20411;-68
2022/03/17 02:20:17;;;;;;;31.27;24.60;;;;;;;;;;5072261;28;20114;-68
2022/03/17 02:22:44;;;;;;;34.67;25.27;;;;;;;;;;5071719;28;20408;-69
2022/03/17 02:27:53;;;;;;;35.63;24.95;;;;;;;;;;5078166;28;20043;-70
2022/03/17 02:30:20;;;;;;;31.05;21.85;;;;;;;;;;5084441;28;20022;-70
2022/03/17 02:32:45;;;;;;;25.95;19.40;;;;;;;;;;5066843;28;20777;-68
2022/03/17 02:35:12;;;;;;;20.77;16.48;;;;;;;;;;5083735;28;20065;-68
2022/03/17 02:37:38;;;;;;;19.02;15.23;;;;;;;;;;5083869;28;20025;-69
2022/03/17 02:40:05;;;;;;;19.75;15.82;;;;;;;;;;5083535;28;20956;-69
2022/03/17 02:42:30;;;;;;;16.98;13.82;;;;;;;;;;5078191;28;20379;-69
2022/03/17 02:45:03;;;;;;;15.63;13.23;;;;;;;;;;5062727;28;20039;-68
2022/03/17 02:47:28;;;;;;;14.55;11.85;;;;;;;;;;5082457;28;20035;-68
2022/03/17 02:49:57;;;;;;;12.32;10.95;;;;;;;;;;5083426;28;20036;-69
2022/03/17 02:52:23;;;;;;;14.38;12.10;;;;;;;;;;5073149;28;20035;-70
2022/03/17 02:54:49;;;;;;;11.85;10.38;;;;;;;;;;5084304;28;20058;-67
2022/03/17 02:57:14;;;;;;;12.32;10.60;;;;;;;;;;5082637;28;20123;-68
2022/03/17 02:59:40;;;;;;;13.82;11.57;;;;;;;;;;5082095;28;20015;-67
2022/03/17 03:02:05;;;;;;;10.77;9.68;;;;;;;;;;5081236;28;20409;-66
2022/03/17 03:04:33;;;;;;;11.02;9.55;;;;;;;;;;5083729;28;20450;-66
2022/03/17 03:06:59;;;;;;;10.60;9.50;;;;;;;;;;5085347;28;20023;-68
2022/03/17 03:09:24;;;;;;;11.55;9.98;;;;;;;;;;5084559;28;20089;-68
2022/03/17 03:11:49;;;;;;;10.13;9.02;;;;;;;;;;5081717;28;21641;-66
2022/03/17 03:14:15;;;;;;;8.73;7.82;;;;;;;;;;5083473;28;20127;-68
2022/03/17 03:16:40;;;;;;;8.10;7.13;;;;;;;;;;5081490;28;20133;-68
2022/03/17 03:19:05;;;;;;;10.38;9.07;;;;;;;;;;5080579;28;20035;-69
2022/03/17 03:21:31;;;;;;;8.30;7.45;;;;;;;;;;5082010;28;20610;-69
2022/03/17 03:23:56;;;;;;;9.55;8.60;;;;;;;;;;5081429;28;20031;-69
2022/03/17 03:26:21;;;;;;;9.65;8.00;;;;;;;;;;5075595;28;20024;-68
2022/03/17 03:28:47;;;;;;;7.68;6.70;;;;;;;;;;5068927;28;20131;-68
2022/03/17 03:31:12;;;;;;;8.02;7.18;;;;;;;;;;5081528;28;20064;-68
2022/03/17 03:33:37;;;;;;;6.45;5.85;;;;;;;;;;5081104;28;20023;-69
2022/03/17 03:38:47;;;;;;;6.57;5.78;;;;;;;;;;5074687;28;20043;-68
2022/03/17 03:41:12;;;;;;;6.75;6.05;;;;;;;;;;5080021;28;20036;-68
2022/03/17 03:43:38;;;;;;;7.10;6.30;;;;;;;;;;5071961;28;20388;-68
2022/03/17 03:46:04;;;;;;;6.00;5.40;;;;;;;;;;5076768;28;20024;-69
2022/03/17 03:48:31;;;;;;;6.00;5.40;;;;;;;;;;5080592;28;20343;-69
2022/03/17 03:50:57;;;;;;;5.85;5.25;;;;;;;;;;5084080;28;20028;-67
2022/03/17 03:53:22;;;;;;;5.53;5.03;;;;;;;;;;5086877;28;20035;-67
2022/03/17 03:55:48;;;;;;;4.53;4.10;;;;;;;;;;5085794;28;20527;-67
2022/03/17 03:58:13;;;;;;;4.82;4.40;;;;;;;;;;5086140;28;20024;-67
2022/03/17 04:00:41;;;;;;;4.50;4.10;;;;;;;;;;5086404;28;20028;-66
2022/03/17 04:03:07;;;;;;;4.32;3.92;;;;;;;;;;5084541;28;20410;-67
2022/03/17 04:05:33;;;;;;;4.20;3.80;;;;;;;;;;5087218;28;20028;-69
2022/03/17 04:07:59;;;;;;;4.32;3.92;;;;;;;;;;5075323;28;20031;-69
2022/03/17 04:10:26;;;;;;;3.75;3.45;;;;;;;;;;5085879;28;20439;-67
2022/03/17 04:12:51;;;;;;;3.78;3.38;;;;;;;;;;5088878;28;20133;-70
2022/03/17 04:15:16;;;;;;;3.75;3.45;;;;;;;;;;5085538;28;20056;-69
2022/03/17 04:17:42;;;;;;;3.55;3.25;;;;;;;;;;5086280;28;20027;-69
2022/03/17 04:20:09;;;;;;;3.33;2.88;;;;;;;;;;5085758;28;20642;-69
2022/03/17 04:22:34;;;;;;;4.93;3.78;;;;;;;;;;5077688;28;20132;-67
2022/03/17 04:24:59;;;;;;;4.00;3.35;;;;;;;;;;5074203;28;20028;-68
2022/03/17 04:27:25;;;;;;;2.65;2.45;;;;;;;;;;5080118;28;20028;-68
2022/03/17 04:29:50;;;;;;;2.53;2.33;;;;;;;;;;5085308;28;20443;-68
2022/03/17 04:32:16;;;;;;;2.38;2.20;;;;;;;;;;5086475;28;20024;-69
2022/03/17 04:34:41;;;;;;;2.83;2.63;;;;;;;;;;5085065;28;20511;-69
2022/03/17 04:37:07;;;;;;;3.15;2.85;;;;;;;;;;5071271;28;20423;-69
2022/03/17 04:39:32;;;;;;;4.15;3.75;;;;;;;;;;5075447;28;20028;-69
2022/03/17 04:41:58;;;;;;;3.08;2.78;;;;;;;;;;5073048;28;20027;-69
2022/03/17 04:44:24;;;;;;;4.88;4.07;;;;;;;;;;5072385;28;20085;-70
2022/03/17 04:46:50;;;;;;;3.17;2.90;;;;;;;;;;5062556;28;20016;-69
2022/03/17 04:49:15;;;;;;;3.03;2.70;;;;;;;;;;5063164;28;20039;-67
2022/03/17 04:51:40;;;;;;;13.30;10.95;;;;;;;;;;5084985;28;20043;-68
2022/03/17 04:54:06;;;;;;;6.90;6.00;;;;;;;;;;5073404;28;20024;-68
2022/03/17 04:56:31;;;;;;;3.67;3.33;;;;;;;;;;5073265;28;20059;-70
2022/03/17 04:58:57;;;;;;;7.50;6.90;;;;;;;;;;5074419;28;20608;-68
2022/03/17 05:01:23;;;;;;;21.25;19.15;;;;;;;;;;5081324;28;20024;-69
2022/03/17 05:03:49;;;;;;;12.27;11.18;;;;;;;;;;5083673;28;20093;-67
2022/03/17 05:06:15;;;;;;;7.93;7.22;;;;;;;;;;5086355;28;20032;-68
2022/03/17 05:08:41;;;;;;;5.20;4.70;;;;;;;;;;5084093;28;20086;-68
2022/03/17 05:11:07;;;;;;;10.10;8.52;;;;;;;;;;5086004;28;20137;-68
2022/03/17 05:13:33;;;;;;;6.45;5.68;;;;;;;;;;5073026;28;20528;-68
2022/03/17 05:15:59;;;;;;;10.25;7.32;;;;;;;;;;5083292;28;20138;-67
2022/03/17 05:18:24;;;;;;;36.45;32.70;;;;;;;;;;5084460;28;20064;-68
2022/03/17 05:20:50;;;;;;;13.40;11.57;;;;;;;;;;5076232;28;20115;-68
2022/03/17 05:23:17;;;;;;;15.05;11.20;;;;;;;;;;5084935;28;20036;-68
2022/03/17 05:25:43;;;;;;;20.48;13.93;;;;;;;;;;5084604;28;20038;-69
2022/03/17 05:28:08;;;;;;;20.63;13.55;;;;;;;;;;5073691;28;20028;-67
2022/03/17 05:30:34;;;;;;;15.18;11.95;;;;;;;;;;5074917;28;20425;-68
2022/03/17 05:33:00;;;;;;;26.83;22.88;;;;;;;;;;5063582;28;20030;-68
2022/03/17 05:35:26;;;;;;;15.50;12.55;;;;;;;;;;5085058;28;20024;-69
2022/03/17 05:37:53;;;;;;;14.18;11.40;;;;;;;;;;5083413;28;20020;-68
2022/03/17 05:40:18;;;;;;;10.82;9.68;;;;;;;;;;5081997;28;20036;-67
2022/03/17 05:42:45;;;;;;;46.22;33.58;;;;;;;;;;5072501;28;20046;-69
2022/03/17 05:45:10;;;;;;;32.35;22.77;;;;;;;;;;5072221;28;20074;-69
2022/03/17 05:47:40;;;;;;;30.42;20.80;;;;;;;;;;5075276;28;20027;-68
2022/03/17 05:50:06;;;;;;;31.02;19.88;;;;;;;;;;5077798;28;20040;-68
2022/03/17 05:52:31;;;;;;;35.25;26.05;;;;;;;;;;5085234;28;20574;-70
2022/03/17 05:54:57;;;;;;;22.83;15.95;;;;;;;;;;5083002;28;20105;-67
2022/03/17 05:57:22;;;;;;;60.85;34.28;;;;;;;;;;5083103;28;20027;-68
2022/03/17 05:59:48;;;;;;;41.90;25.05;;;;;;;;;;5083211;28;20016;-68
2022/03/17 06:02:13;;;;;;;25.52;19.00;;;;;;;;;;5081451;28;20100;-68
2022/03/17 06:04:40;;;;;;;28.50;20.30;;;;;;;;;;5072318;28;20085;-68
2022/03/17 06:07:06;;;;;;;26.70;20.38;;;;;;;;;;5085460;28;20541;-68
2022/03/17 06:09:31;;;;;;;34.17;23.90;;;;;;;;;;5084679;28;20043;-68
2022/03/17 06:11:57;;;;;;;38.17;25.25;;;;;;;;;;5082781;28;20152;-68
2022/03/17 06:14:22;;;;;;;68.57;42.90;;;;;;;;;;5081671;28;20048;-66
2022/03/17 06:16:48;;;;;;;57.90;40.15;;;;;;;;;;5076316;28;20024;-71
2022/03/17 06:19:13;;;;;;;34.20;23.40;;;;;;;;;;5083434;28;20028;-72
2022/03/17 06:21:39;;;;;;;37.45;25.60;;;;;;;;;;5085163;28;20059;-71
2022/03/17 06:24:04;;;;;;;47.92;32.30;;;;;;;;;;5081778;28;20047;-69
2022/03/17 06:26:29;;;;;;;44.65;30.33;;;;;;;;;;5085427;28;20327;-68
2022/03/17 06:28:55;;;;;;;35.30;23.95;;;;;;;;;;5081359;28;20097;-69
2022/03/17 06:31:20;;;;;;;32.72;23.33;;;;;;;;;;5082629;28;20042;-69
2022/03/17 06:33:46;;;;;;;40.45;26.50;;;;;;;;;;5072725;28;20030;-69
2022/03/17 06:36:13;;;;;;;31.85;22.45;;;;;;;;;;5074908;28;20031;-68
2022/03/17 06:38:38;;;;;;;35.53;24.33;;;;;;;;;;5074981;28;20959;-68
2022/03/17 06:41:04;;;;;;;34.60;22.83;;;;;;;;;;5077805;28;20446;-70
2022/03/17 06:43:29;;;;;;;37.70;25.65;;;;;;;;;;5082671;28;20055;-69
2022/03/17 06:45:54;;;;;;;41.20;24.92;;;;;;;;;;5083316;28;20457;-68
2022/03/17 06:48:20;;;;;;;48.47;27.17;;;;;;;;;;5085786;28;20435;-68
2022/03/17 06:50:45;;;;;;;37.15;23.48;;;;;;;;;;5083191;28;20029;-69
2022/03/17 06:53:10;;;;;;;32.50;21.38;;;;;;;;;;5075770;28;20039;-69
2022/03/17 06:55:36;;;;;;;35.67;24.70;;;;;;;;;;5066572;28;20117;-68
2022/03/17 06:58:02;;;;;;;85.93;48.38;;;;;;;;;;5083354;28;20026;-69
2022/03/17 07:00:27;;;;;;;49.42;29.00;;;;;;;;;;5080673;28;20034;-70
2022/03/17 07:02:53;;;;;;;33.58;21.63;;;;;;;;;;5070038;28;20020;-70
2022/03/17 07:05:18;;;;;;;36.22;23.63;;;;;;;;;;5071368;28;20724;-71
2022/03/17 07:07:43;;;;;;;26.02;17.52;;;;;;;;;;5072104;28;20351;-70
2022/03/17 07:10:09;;;;;;;31.85;20.10;;;;;;;;;;5070763;28;20351;-71
2022/03/17 07:12:35;;;;;;;28.70;18.95;;;;;;;;;;5068586;28;20060;-71
2022/03/17 07:15:00;;;;;;;26.23;17.05;;;;;;;;;;5070002;28;20145;-71
2022/03/17 07:17:26;;;;;;;38.58;23.40;;;;;;;;;;5073728;28;20449;-71
2022/03/17 07:22:26;;;;;;;25.20;16.33;;;;;;;;;;5069436;28;20031;-69
2022/03/17 07:24:53;;;;;;;25.23;17.23;;;;;;;;;;5069024;28;20042;-72
2022/03/17 07:27:19;;;;;;;46.13;28.33;;;;;;;;;;5074110;28;20099;-70
2022/03/17 07:29:44;;;;;;;37.15;24.60;;;;;;;;;;5081447;28;20403;-70
2022/03/17 07:32:10;;;;;;;15.98;13.05;;;;;;;;;;5081043;28;20058;-71
2022/03/17 07:34:35;;;;;;;22.02;14.70;;;;;;;;;;5080980;28;20034;-70
2022/03/17 07:37:00;;;;;;;17.27;12.95;;;;;;;;;;5081228;28;20024;-70
2022/03/17 07:39:26;;;;;;;52.67;28.70;;;;;;;;;;5080667;28;20059;-71
2022/03/17 07:41:51;;;;;;;30.83;18.65;;;;;;;;;;5074401;28;20031;-69
2022/03/17 07:44:16;;;;;;;18.40;13.73;;;;;;;;;;5079874;28;20032;-70
2022/03/17 07:46:42;;;;;;;25.85;16.20;;;;;;;;;;5075754;28;20047;-70
2022/03/17 07:49:08;;;;;;;17.05;12.30;;;;;;;;;;5075830;28;20027;-69
2022/03/17 07:51:33;;;;;;;15.02;11.20;;;;;;;;;;5072863;28;20028;-69
2022/03/17 07:53:58;;;;;;;15.93;12.00;;;;;;;;;;5071036;28;20028;-69
2022/03/17 07:56:24;;;;;;;13.93;10.60;;;;;;;;;;5071716;28;20019;-69
2022/03/17 07:58:49;;;;;;;18.83;13.02;;;;;;;;;;5068895;28;20032;-70
2022/03/17 08:01:16;;;;;;;26.42;15.35;;;;;;;;;;5071491;28;20036;-69
2022/03/17 08:03:41;;;;;;;23.60;14.10;;;;;;;;;;5071488;28;20039;-70
2022/03/17 08:06:06;;;;;;;24.02;14.50;;;;;;;;;;5074090;28;20024;-69
2022/03/17 08:08:34;;;;;;;34.65;19.65;;;;;;;;;;5069728;28;20024;-68
2022/03/17 08:10:59;;;;;;;18.30;11.98;;;;;;;;;;5069685;28;20019;-71
2022/03/17 08:13:25;;;;;;;45.20;23.83;;;;;;;;;;5073325;28;20040;-69
2022/03/17 08:15:51;;;;;;;14.35;9.38;;;;;;;;;;5075023;28;20031;-66
2022/03/17 08:18:16;;;;;;;18.08;12.15;;;;;;;;;;5073622;28;20358;-70
2022/03/17 08:20:41;;;;;;;44.40;26.10;;;;;;;;;;5081038;28;20654;-69
2022/03/17 08:23:07;;;;;;;11.35;8.07;;;;;;;;;;5084691;28;20099;-66
2022/03/17 08:25:33;;;;;;;18.38;12.82;;;;;;;;;;5081849;28;20773;-66
2022/03/17 08:28:02;;;;;;;8.98;6.90;;;;;;;;;;5080966;28;20027;-69
2022/03/17 08:30:28;;;;;;;6.50;5.50;;;;;;;;;;5072898;28;20052;-70
2022/03/17 08:32:53;;;;;;;6.75;5.82;;;;;;;;;;5073123;28;20020;-70
2022/03/17 08:35:18;;;;;;;30.35;17.98;;;;;;;;;;5074288;28;20035;-69
2022/03/17 08:37:45;;;;;;;21.63;12.48;;;;;;;;;;5081973;28;20028;-67
2022/03/17 08:40:11;;;;;;;18.35;10.23;;;;;;;;;;5078200;28;20020;-70
2022/03/17 08:42:37;;;;;;;12.32;8.00;;;;;;;;;;5082136;28;20024;-69
2022/03/17 08:49:18;;;;;;;19.25;12.13;;;;;;;;;;5084459;28;20039;-68
2022/03/17 08:50:37;;;;;;;23.95;11.77;;;;;;;;;;5082892;28;20031;-68
2022/03/17 08:53:02;;;;;;;35.47;18.88;;;;;;;;;;5078714;28;20464;-71
2022/03/17 08:55:28;;;;;;;14.60;9.13;;;;;;;;;;5079443;28;20062;-68
2022/03/17 08:57:53;;;;;;;14.27;10.10;;;;;;;;;;5058334;28;20597;-72
2022/03/17 09:00:18;;;;;;;16.60;11.13;;;;;;;;;;5083255;28;20028;-69
2022/03/17 09:02:44;;;;;;;10.75;8.38;;;;;;;;;;5082559;28;20111;-67
2022/03/17 09:05:10;;;;;;;12.05;7.68;;;;;;;;;;5078703;28;20084;-66
2022/03/17 09:07:36;;;;;;;11.98;7.90;;;;;;;;;;5078498;28;20447;-69
2022/03/17 09:10:01;;;;;;;12.65;9.45;;;;;;;;;;5083303;28;20034;-68
2022/03/17 09:12:30;;;;;;;11.25;8.13;;;;;;;;;;5076484;28;20039;-70
2022/03/17 09:14:55;;;;;;;15.10;8.63;;;;;;;;;;5064245;28;20065;-72
2022/03/17 09:17:21;;;;;;;13.20;9.68;;;;;;;;;;5078976;28;21082;-67
2022/03/17 09:19:46;;;;;;;14.30;9.82;;;;;;;;;;5084556;28;20020;-68
2022/03/17 09:22:12;;;;;;;10.82;7.75;;;;;;;;;;5079340;28;20039;-67
2022/03/17 09:24:37;;;;;;;17.77;12.85;;;;;;;;;;5083217;28;20096;-68
2022/03/17 09:27:03;;;;;;;22.88;19.33;;;;;;;;;;5078656;28;20157;-67
2022/03/17 09:29:28;;;;;;;16.02;11.35;;;;;;;;;;5083950;28;20114;-67
2022/03/17 09:31:54;;;;;;;12.70;8.90;;;;;;;;;;5083450;28;20394;-68
2022/03/17 09:34:19;;;;;;;10.95;8.20;;;;;;;;;;5085155;28;20034;-68
2022/03/17 09:36:45;;;;;;;13.73;10.20;;;;;;;;;;5082904;28;20028;-69
2022/03/17 09:41:54;;;;;;;16.00;12.52;;;;;;;;;;5084418;28;20035;-70
2022/03/17 09:44:19;;;;;;;13.30;8.75;;;;;;;;;;5071292;28;20023;-72
2022/03/17 09:46:45;;;;;;;11.50;9.15;;;;;;;;;;5079028;28;20127;-70
2022/03/17 09:49:10;;;;;;;14.35;10.18;;;;;;;;;;5075082;28;20032;-70
2022/03/17 09:51:37;;;;;;;12.55;9.48;;;;;;;;;;5080008;28;20023;-70
2022/03/17 09:54:02;;;;;;;12.68;8.48;;;;;;;;;;5085505;28;20118;-72
2022/03/17 09:56:28;;;;;;;11.00;8.25;;;;;;;;;;5084029;28;20115;-72
2022/03/17 09:58:54;;;;;;;16.60;9.15;;;;;;;;;;5084535;28;20403;-71
2022/03/17 10:01:21;;;;;;;11.50;8.73;;;;;;;;;;5082941;28;20024;-69
2022/03/17 10:03:46;;;;;;;13.65;10.02;;;;;;;;;;5083630;28;20516;-72
2022/03/17 10:06:14;;;;;;;14.27;12.30;;;;;;;;;;5075748;28;20032;-72
2022/03/17 10:08:41;;;;;;;11.82;9.32;;;;;;;;;;5076972;28;20043;-71
2022/03/17 10:11:06;;;;;;;11.40;9.57;;;;;;;;;;5082729;28;20127;-70
2022/03/17 10:13:34;;;;;;;11.20;8.90;;;;;;;;;;5085189;28;20139;-72
2022/03/17 10:16:05;;;;;;;14.55;11.68;;;;;;;;;;5075288;28;20020;-71
2022/03/17 10:18:30;;;;;;;17.83;11.43;;;;;;;;;;5072603;28;20492;-71
2022/03/17 10:21:08;;;;;;;15.25;11.55;;;;;;;;;;5073478;28;20036;-70
2022/03/17 10:23:35;;;;;;;15.40;10.27;;;;;;;;;;5073043;28;20034;-70
2022/03/17 10:26:00;;;;;;;16.08;10.23;;;;;;;;;;5081960;28;20116;-70
2022/03/17 10:28:26;;;;;;;14.43;10.00;;;;;;;;;;5075102;28;21317;-70
2022/03/17 10:31:02;;;;;;;10.73;8.25;;;;;;;;;;5083455;28;20032;-69
2022/03/17 10:33:28;;;;;;;10.60;7.60;;;;;;;;;;5082553;28;20031;-70
2022/03/17 10:35:54;;;;;;;11.85;7.38;;;;;;;;;;5082883;28;20024;-72
2022/03/17 10:38:20;;;;;;;11.23;8.38;;;;;;;;;;5083429;28;20032;-71
2022/03/17 10:41:00;;;;;;;9.50;7.32;;;;;;;;;;5082846;28;20032;-72
2022/03/17 10:43:26;;;;;;;7.28;5.53;;;;;;;;;;5083891;28;20039;-72
2022/03/17 10:46:06;;;;;;;7.95;5.90;;;;;;;;;;5082941;28;20057;-72
2022/03/17 10:48:32;;;;;;;7.75;6.10;;;;;;;;;;5081467;28;20030;-71
2022/03/17 10:50:57;;;;;;;10.70;6.80;;;;;;;;;;5082271;28;20031;-69
2022/03/17 10:53:29;;;;;;;7.22;6.00;;;;;;;;;;5080502;28;20106;-71
2022/03/17 10:56:14;;;;;;;6.47;5.75;;;;;;;;;;5080735;28;20115;-71
2022/03/17 10:58:41;;;;;;;7.13;5.80;;;;;;;;;;5081137;28;20020;-72
2022/03/17 11:01:06;;;;;;;7.72;5.82;;;;;;;;;;5081026;28;20089;-71
2022/03/17 11:03:32;;;;;;;6.80;5.72;;;;;;;;;;5081220;28;20028;-71
2022/03/17 11:05:57;;;;;;;7.78;5.10;;;;;;;;;;5084064;28;20033;-72
2022/03/17 11:08:23;;;;;;;9.07;5.82;;;;;;;;;;5082600;28;20051;-73
2022/03/17 11:10:49;;;;;;;6.57;5.20;;;;;;;;;;5083909;28;20034;-72
2022/03/17 11:13:14;;;;;;;10.35;6.13;;;;;;;;;;5082495;28;20113;-71
2022/03/17 11:16:00;;;;;;;10.40;7.30;;;;;;;;;;5064893;28;20431;-72
2022/03/17 11:18:26;;;;;;;8.43;5.70;;;;;;;;;;5082569;28;20032;-72
2022/03/17 11:21:16;;;;;;;10.32;7.05;;;;;;;;;;5083219;28;20043;-71
2022/03/17 11:23:55;;;;;;;9.07;6.47;;;;;;;;;;5073648;28;20048;-71
2022/03/17 11:26:22;;;;;;;10.65;7.70;;;;;;;;;;5082554;28;20135;-70
2022/03/17 11:28:48;;;;;;;9.20;6.88;;;;;;;;;;5081926;28;20058;-70
2022/03/17 11:31:17;;;;;;;14.48;8.07;;;;;;;;;;5069202;28;20355;-70
2022/03/17 11:33:43;;;;;;;12.52;8.30;;;;;;;;;;5081126;28;20849;-71
2022/03/17 11:36:08;;;;;;;16.17;8.15;;;;;;;;;;5083300;28;20760;-71
2022/03/17 11:38:37;;;;;;;10.02;7.72;;;;;;;;;;5083912;28;20035;-70
2022/03/17 11:41:08;;;;;;;13.60;8.20;;;;;;;;;;5082297;28;20046;-70
2022/03/17 11:43:46;;;;;;;12.10;8.85;;;;;;;;;;5082467;28;20051;-71
2022/03/17 11:46:12;;;;;;;23.30;14.95;;;;;;;;;;5081380;28;20451;-71
2022/03/17 11:48:38;;;;;;;14.27;9.98;;;;;;;;;;5080930;28;20384;-70
2022/03/17 11:51:04;;;;;;;12.23;7.90;;;;;;;;;;5081517;28;20039;-70
2022/03/17 11:53:37;;;;;;;13.05;6.78;;;;;;;;;;5083659;28;20031;-70
2022/03/17 11:56:03;;;;;;;10.73;9.07;;;;;;;;;;5082808;28;20033;-70
2022/03/17 11:58:42;;;;;;;8.50;6.93;;;;;;;;;;5082324;28;20024;-71
2022/03/17 12:01:11;;;;;;;;;;;;;;;;;;5083282;28;20047;-70
2022/03/17 12:03:44;;;;;;;30.33;16.92;;;;;;;;;;5082618;28;20403;-70
2022/03/17 12:06:28;;;;;;;50.60;21.27;;;;;;;;;;5083376;28;20362;-70
2022/03/17 12:09:03;;;;;;;22.63;15.05;;;;;;;;;;5081381;28;20377;-70
2022/03/17 12:11:47;;;;;;;16.00;9.10;;;;;;;;;;5082430;28;20092;-70
2022/03/17 12:14:20;;;;;;;22.98;14.18;;;;;;;;;;5087022;28;20052;-70
2022/03/17 12:16:48;;;;;;;17.38;10.98;;;;;;;;;;5086068;28;20020;-69
2022/03/17 12:19:28;;;;;;;14.20;9.95;;;;;;;;;;5087139;28;20051;-70
2022/03/17 12:22:02;;;;;;;14.52;9.35;;;;;;;;;;5086544;28;20059;-71
2022/03/17 12:24:39;;;;;;;24.15;14.57;;;;;;;;;;5086975;28;20374;-70
2022/03/17 12:27:26;;;;;;;37.78;22.77;;;;;;;;;;5084172;28;20028;-70
2022/03/17 12:30:00;;;;;;;46.00;26.38;;;;;;;;;;5086662;28;20016;-70
2022/03/17 12:32:27;;;;;;;17.85;13.38;;;;;;;;;;5087743;28;20044;-70
2022/03/17 12:34:53;;;;;;;25.88;17.92;;;;;;;;;;5085077;28;20158;-71
2022/03/17 12:37:20;;;;;;;32.75;20.10;;;;;;;;;;5085763;28;20027;-70
2022/03/17 12:39:50;;;;;;;62.92;30.05;;;;;;;;;;5085183;28;20020;-70
2022/03/17 12:42:22;;;;;;;25.70;17.77;;;;;;;;;;5084894;28;20039;-70
2022/03/17 12:44:48;;;;;;;27.73;18.35;;;;;;;;;;5086260;28;20044;-70
2022/03/17 12:47:14;;;;;;;14.90;10.75;;;;;;;;;;5085364;28;20024;-71
2022/03/17 12:49:40;;;;;;;13.15;9.40;;;;;;;;;;5084883;28;20024;-71
2022/03/17 12:52:12;;;;;;;13.95;11.02;;;;;;;;;;5085449;28;20028;-70
2022/03/17 12:54:38;;;;;;;16.60;11.32;;;;;;;;;;5088636;28;20016;-72
2022/03/17 12:57:03;;;;;;;35.58;19.58;;;;;;;;;;5086025;28;20038;-72
2022/03/17 12:59:29;;;;;;;25.77;15.10;;;;;;;;;;5086324;28;20031;-71
2022/03/17 13:01:55;;;;;;;10.82;8.88;;;;;;;;;;5084670;28;20027;-71
2022/03/17 13:04:20;;;;;;;10.05;8.18;;;;;;;;;;5086343;28;20032;-71
2022/03/17 13:06:54;;;;;;;19.55;14.75;;;;;;;;;;5085576;28;20035;-71
2022/03/17 13:09:20;;;;;;;13.50;9.82;;;;;;;;;;5084065;28;20027;-71
2022/03/17 13:14:33;;;;;;;20.98;12.45;;;;;;;;;;5086666;28;20509;-71
2022/03/17 13:16:59;;;;;;;15.75;11.90;;;;;;;;;;5085124;28;20040;-71
2022/03/17 13:19:25;;;;;;;24.85;13.80;;;;;;;;;;5085828;28;20099;-71
2022/03/17 13:21:51;;;;;;;26.20;15.73;;;;;;;;;;5083672;28;20342;-71
2022/03/17 13:24:17;;;;;;;23.90;13.63;;;;;;;;;;5083250;28;20486;-71
2022/03/17 13:26:42;;;;;;;29.25;15.07;;;;;;;;;;5083340;28;20110;-71
2022/03/17 13:29:12;;;;;;;17.10;11.38;;;;;;;;;;5085543;28;20446;-71
2022/03/17 13:31:43;;;;;;;16.38;9.98;;;;;;;;;;5085169;28;20028;-71
2022/03/17 13:34:08;;;;;;;14.80;9.35;;;;;;;;;;5083909;28;20028;-71
2022/03/17 13:36:52;;;;;;;19.02;10.25;;;;;;;;;;5084697;28;20457;-71
2022/03/17 13:39:17;;;;;;;11.88;8.32;;;;;;;;;;5067284;28;20028;-71
2022/03/17 13:42:15;;;;;;;22.98;13.88;;;;;;;;;;5083127;28;20408;-71
2022/03/17 13:44:41;;;;;;;18.63;10.55;;;;;;;;;;5041450;28;20055;-71
2022/03/17 13:47:26;;;;;;;24.40;13.77;;;;;;;;;;5083849;28;20506;-71
2022/03/17 13:50:07;;;;;;;15.77;10.73;;;;;;;;;;5085018;28;20038;-70
2022/03/17 13:52:32;;;;;;;14.88;9.63;;;;;;;;;;5083390;28;20074;-70
2022/03/17 13:54:57;;;;;;;31.48;15.15;;;;;;;;;;5083315;28;21172;-71
2022/03/17 13:57:23;;;;;;;20.23;12.27;;;;;;;;;;5083682;28;20631;-70
2022/03/17 13:59:48;;;;;;;26.23;12.48;;;;;;;;;;5083380;28;20020;-70
2022/03/17 14:02:14;;;;;;;24.05;12.40;;;;;;;;;;5067749;28;20032;-70
2022/03/17 14:04:55;;;;;;;21.63;11.82;;;;;;;;;;5084297;28;20345;-71
2022/03/17 14:07:21;;;;;;;21.30;11.52;;;;;;;;;;5083023;28;20031;-71
2022/03/17 14:09:47;;;;;;;15.95;9.45;;;;;;;;;;5082862;28;20348;-70
2022/03/17 14:12:12;;;;;;;27.50;16.20;;;;;;;;;;5084023;28;20434;-71
2022/03/17 14:14:38;;;;;;;14.27;9.18;;;;;;;;;;5084536;28;20024;-71
2022/03/17 14:17:03;;;;;;;12.85;10.07;;;;;;;;;;5083837;28;20028;-71
2022/03/17 14:19:29;;;;;;;18.88;10.60;;;;;;;;;;5082888;28;20032;-70
2022/03/17 14:24:41;;;;;;;15.98;10.50;;;;;;;;;;5082719;28;20042;-71
2022/03/17 14:27:07;;;;;;;16.08;10.98;;;;;;;;;;5085340;28;20423;-71
2022/03/17 14:29:32;;;;;;;20.27;13.82;;;;;;;;;;5083779;28;20030;-70
2022/03/17 14:31:58;;;;;;;18.38;12.65;;;;;;;;;;5073892;28;20032;-71
2022/03/17 14:34:25;;;;;;;18.45;12.90;;;;;;;;;;5081234;28;20328;-71
2022/03/17 14:36:52;;;;;;;15.30;11.02;;;;;;;;;;5084456;28;20035;-71
2022/03/17 14:39:18;;;;;;;14.10;9.10;;;;;;;;;;5084671;28;20016;-71
2022/03/17 14:41:43;;;;;;;68.57;22.48;;;;;;;;;;5082638;28;20113;-72
2022/03/17 14:44:09;;;;;;;35.25;14.93;;;;;;;;;;5083447;28;20031;-72
2022/03/17 14:46:34;;;;;;;30.67;18.48;;;;;;;;;;5072466;28;20041;-71